Terminal Aerodrome Forecast
Issued by NWS Quad Cities IA IL

Home | Current Version | Previous Version | Text Only | Print | Product List | Glossary On
Versions: 1 2 3 4 5 6 7 8 9 10 11 12 13 14 15 16 17 18
000
FTUS43 KDVN 161729
TAFDBQ
TAF
KDBQ 161729Z 1618/1718 18012G18KT P6SM SCT120
     FM162300 17009KT P6SM BKN080 PROB30 1706/1710 5SM SHRA BKN050
     FM171000 33009KT 6SM BR OVC009=

USA.gov is the U.S. government's official web portal to all federal, state and local government web resources and services.